Latest Coastal Weather Observations for Minlaton Airport

IDS60701

Issued at 1:31 am CST Wednesday 29 April 2015 (issued every 10 minutes, with the page automatically refreshed every 10 minutes)

About coastal observations | Map of coastal stations | Coastal observations for SA | Marine services | Other Formats
Station Details ID: 022031 Name: MINLATON AERO Lat: -34.75 Lon: 137.53 Height: 32.0 m
Data from the previous 72 hours. | See also: Recent months at Minlaton Airport
Date/Time
CST
Temp

°C
Wind Pressure Rain
since 9am
mm
Weather Cloud Vis
km
Sea
Height
m
Swell
Dir
 
Speed
knots
Gust
knots
hPa Trend Height
m
Period
s
Dir
29/01:30am 7.9 ESE 9 9 1029.8 - 0.0 - - - - - - -
29/01:00am 7.8 ESE 9 9 1029.8 - 0.0 - - - - - - -
29/12:30am 8.6 E 10 10 1029.7 - 0.0 - - - - - - -
29/12:00am 8.7 E 9 10 1029.9 - 0.0 - - - - - - -
 
Date/Time
CST
Temp

°C
Wind Pressure Rain
since 9am
mm
Weather Cloud Vis
km
Sea
Height
m
Swell
Dir
 
Speed
knots
Gust
knots
hPa Trend Height
m
Period
s
Dir
28/11:30pm 9.2 ESE 9 10 1030.0 - 0.0 - - - - - - -
28/11:00pm 9.8 ESE 10 11 1030.1 - 0.0 - - - - - - -
28/10:30pm 10.9 ESE 9 10 1030.1 - 0.0 - - - - - - -
28/10:00pm 12.7 ESE 10 11 1030.1 - 0.0 - - - - - - -
28/09:30pm 13.4 ESE 11 13 1030.0 - 0.0 - - - - - - -
28/09:00pm 13.6 ESE 12 14 1029.8 - 0.0 - - - - - - -
28/08:30pm 13.3 SE 9 11 1029.7 - 0.0 - - - - - - -
28/08:00pm 13.3 SE 10 13 1029.5 - 0.0 - - - - - - -
28/07:30pm 13.2 SE 7 8 1029.4 - 0.0 - - - - - - -
28/07:00pm 13.2 SSE 6 9 1029.3 - 0.0 - - - - - - -
28/06:30pm 13.5 SE 6 7 1029.1 - 0.0 - - - - - - -
28/06:00pm 14.1 SE 8 9 1028.9 - 0.0 - - - - - - -
28/05:30pm 14.5 ESE 8 10 1028.7 - 0.0 - - - - - - -
28/05:00pm 14.9 SE 11 13 1028.5 - 0.0 - - - - - - -
28/04:30pm 15.4 ESE 11 14 1028.5 - 0.0 - - - - - - -
28/04:00pm 15.8 ESE 11 14 1028.4 - 0.0 - - - - - - -
28/03:30pm 16.0 ESE 8 12 1028.4 - 0.0 - - - - - - -
28/03:00pm 15.4 SSE 6 9 1028.4 - 0.0 - - - - - - -
28/02:30pm 15.0 S 8 11 1028.4 - 0.0 - - - - - - -
28/02:00pm 14.7 SSW 7 8 1028.7 - 0.0 - - - - - - -
28/01:30pm 14.0 SSW 10 12 1029.1 - 0.0 - - - - - - -
28/01:00pm 14.7 SE 8 15 1029.5 - 0.0 - - - - - - -
28/12:30pm 14.9 E 8 13 1029.8 - 0.0 - - - - - - -
28/12:00pm 15.2 ENE 13 16 1030.0 - 0.0 - - - - - - -
28/11:30am 15.3 E 15 20 1030.3 - 0.0 - - - - - - -
28/11:00am 16.5 SE 10 14 1030.2 - 0.0 - - - - - - -
28/10:30am 16.5 SE 7 12 1030.4 - 0.0 - - - - - - -
28/10:00am 16.1 SE 10 14 1030.5 - 0.0 - - - - - - -
28/09:30am 15.4 SE 9 12 1030.5 - 0.0 - - - - - - -
28/09:00am 14.7 SE 9 12 1030.5 - 0.0 - - - - - - -
28/08:30am 13.6 SE 8 10 1030.5 - 0.0 - - - - - - -
28/08:00am 11.9 SE 9 10 1030.3 - 0.0 - - - - - - -
28/07:30am 9.3 SSE 10 11 1030.0 - 0.0 - - - - - - -
28/07:00am 8.7 SSE 9 10 1029.9 - 0.0 - - - - - - -
28/06:30am 7.8 SSE 8 9 1029.6 - 0.0 - - - - - - -
28/06:00am 7.4 SSE 7 8 1029.4 - 0.0 - - - - - - -
28/05:30am 7.1 S 7 8 1029.3 - 0.0 - - - - - - -
28/05:00am 7.1 SSE 7 8 1029.1 - 0.0 - - - - - - -
28/04:30am 8.3 SSE 8 9 1028.9 - 0.0 - - - - - - -
28/04:00am 9.0 SSE 10 10 1028.8 - 0.0 - - - - - - -
28/03:30am 8.2 SSE 9 9 1028.8 - 0.0 - - - - - - -
28/03:00am 7.0 SSE 5 6 1028.9 - 0.0 - - - - - - -
28/02:30am 7.1 S 5 5 1029.0 - 0.0 - - - - - - -
28/02:00am 7.4 SSE 4 5 1028.9 - 0.0 - - - - - - -
28/01:30am 8.9 S 5 6 1028.8 - 0.0 - - - - - - -
28/01:00am 9.5 S 5 6 1028.9 - 0.0 - - - - - - -
28/12:30am 9.6 SSE 6 7 1028.9 - 0.0 - - - - - - -
28/12:00am 9.7 SSE 7 7 1028.9 - 0.0 - - - - - - -
 
Date/Time
CST
Temp

°C
Wind Pressure Rain
since 9am
mm
Weather Cloud Vis
km
Sea
Height
m
Swell
Dir
 
Speed
knots
Gust
knots
hPa Trend Height
m
Period
s
Dir
27/11:30pm 10.3 S 6 7 1029.0 - 0.0 - - - - - - -
27/11:00pm 11.5 S 6 7 1029.1 - 0.0 - - - - - - -
27/10:30pm 11.9 SSW 5 6 1029.3 - 0.0 - - - - - - -
27/10:00pm 12.0 SSW 5 6 1029.3 - 0.0 - - - - - - -
27/09:30pm 12.0 SW 4 4 1029.2 - 0.0 - - - - - - -
27/09:00pm 12.1 SSW 4 4 1029.2 - 0.0 - - - - - - -
27/08:30pm 12.3 SSW 5 6 1029.1 - 0.0 - - - - - - -
27/08:00pm 12.8 S 11 13 1029.1 - 0.0 - - - - - - -
27/07:30pm 13.4 S 7 9 1028.8 - 0.0 - - - - - - -
27/07:00pm 12.9 S 6 7 1028.6 - 0.0 - - - - - - -
27/06:30pm 13.0 SSE 6 7 1028.3 - 0.0 - - - - - - -
27/06:00pm 14.2 SSE 8 10 1028.0 - 0.0 - - - - - - -
27/05:30pm 14.6 SE 9 12 1027.8 - 0.0 - - - - - - -
27/05:00pm 15.9 SE 12 14 1027.5 - 0.0 - - - - - - -
27/04:30pm 16.0 SSW 11 13 1027.5 - 0.0 - - - - - - -
27/04:00pm 16.7 WSW 9 12 1027.4 - 0.0 - - - - - - -
27/03:30pm 16.6 SW 9 14 1027.2 - 0.0 - - - - - - -
27/03:00pm 16.5 W 11 14 1027.2 - 0.0 - - - - - - -
27/02:30pm 16.7 W 12 16 1027.1 - 0.0 - - - - - - -
27/02:00pm 16.7 WSW 11 14 1027.0 - 0.0 - - - - - - -
27/01:30pm 15.8 WSW 14 17 1027.1 - 0.0 - - - - - - -
27/01:00pm 16.5 W 13 16 1027.4 - 0.0 - - - - - - -
27/12:30pm 15.7 WSW 14 16 1027.8 - 0.0 - - - - - - -
27/12:00pm 16.5 SW 10 15 1028.1 - 0.0 - - - - - - -
27/11:30am 16.7 SW 9 13 1028.5 - 0.0 - - - - - - -
27/11:00am 14.7 SSW 11 17 1028.7 - 0.0 - - - - - - -
27/10:30am 16.0 SSE 6 9 1028.7 - 0.0 - - - - - - -
27/10:00am 15.1 SW 12 16 1028.8 - 0.0 - - - - - - -
27/09:30am 14.8 S 8 13 1028.7 - 0.0 - - - - - - -
27/09:00am 14.6 SSW 8 10 1028.5 - 0.0 - - - - - - -
27/08:30am 13.6 SW 3 4 1028.3 - 0.0 - - - - - - -
27/08:00am 12.8 SSW 4 5 1028.1 - 0.0 - - - - - - -
27/07:30am 12.0 S 5 6 1027.9 - 0.0 - - - - - - -
27/07:00am 11.6 SSE 6 7 1027.5 - 0.0 - - - - - - -
27/06:30am 11.5 SSE 6 7 1027.5 - 0.0 - - - - - - -
27/06:00am 11.6 SSE 5 6 1027.3 - 0.0 - - - - - - -
27/05:30am 12.1 S 6 9 1027.1 - 0.0 - - - - - - -
27/05:00am 12.0 S 6 9 1027.0 - 0.0 - - - - - - -
27/04:30am 11.6 S 5 6 1026.9 - 0.0 - - - - - - -
27/04:00am 11.6 S 5 6 1026.8 - 0.0 - - - - - - -
27/03:30am 11.5 S 4 4 1026.9 - 0.0 - - - - - - -
27/03:00am 11.7 SSW 4 5 1027.0 - 0.0 - - - - - - -
27/02:30am 11.8 SE 3 5 1026.9 - 0.0 - - - - - - -
27/02:00am 12.4 CALM 0 3 1027.1 - 0.0 - - - - - - -
27/01:30am 12.3 S 9 11 1027.1 - 0.0 - - - - - - -
27/01:00am 12.3 SE 4 5 1027.0 - 0.0 - - - - - - -
27/12:30am 12.2 ESE 3 5 1027.2 - 0.0 - - - - - - -
27/12:00am 11.8 SSE 15 19 1027.5 - 0.0 - - - - - - -
 
Date/Time
CST
Temp

°C
Wind Pressure Rain
since 9am
mm
Weather Cloud Vis
km
Sea
Height
m
Swell
Dir
 
Speed
knots
Gust
knots
hPa Trend Height
m
Period
s
Dir
26/11:30pm 12.2 S 13 17 1027.4 - 0.0 - - - - - - -
26/11:00pm 12.6 S 7 8 1027.4 - 0.0 - - - - - - -
26/10:30pm 12.5 S 6 7 1027.4 - 0.0 - - - - - - -
26/10:00pm 12.9 S 8 10 1027.5 - 0.0 - - - - - - -
26/09:30pm 12.1 SSE 4 5 1027.3 - 0.0 - - - - - - -
26/09:00pm 12.5 S 5 6 1027.2 - 0.0 - - - - - - -
26/08:30pm 13.0 S 6 7 1027.0 - 0.0 - - - - - - -
26/08:00pm 13.1 SSW 7 8 1026.9 - 0.0 - - - - - - -
26/07:30pm 13.0 S 5 6 1026.7 - 0.0 - - - - - - -
26/07:00pm 13.2 WSW 5 5 1026.5 - 0.0 - - - - - - -
26/06:30pm 13.4 SSW 5 6 1026.3 - 0.0 - - - - - - -
26/06:00pm 13.8 S 6 7 1026.1 - 0.0 - - - - - - -
26/05:30pm 14.3 S 9 12 1026.0 - 0.0 - - - - - - -
26/05:00pm 14.6 S 11 13 1025.7 - 0.0 - - - - - - -
26/04:30pm 14.6 S 11 15 1025.4 - 0.0 - - - - - - -
26/04:00pm 14.8 S 12 16 1025.3 - 0.0 - - - - - - -
26/03:30pm 15.4 S 13 16 1025.1 - 0.0 - - - - - - -
26/03:00pm 15.9 SSW 12 15 1024.8 - 0.0 - - - - - - -
26/02:30pm 17.5 SSW 14 19 1024.7 - 0.0 - - - - - - -
26/02:00pm 16.5 S 13 18 1024.6 - 0.0 - - - - - - -
26/01:30pm 16.1 S 13 16 1024.9 - 0.0 - - - - - - -
26/01:00pm 15.2 SSW 11 15 1025.1 - 0.0 - - - - - - -
26/12:30pm 15.4 S 14 18 1025.3 - 0.0 - - - - - - -
26/12:00pm 14.9 SSW 15 20 1025.3 - 0.0 - - - - - - -
26/11:30am 16.1 S 11 15 1025.5 - 0.0 - - - - - - -
26/11:00am 15.9 S 11 15 1025.5 - 0.0 - - - - - - -
26/10:30am 16.2 S 13 17 1025.5 - 0.0 - - - - - - -
26/10:00am 15.1 SSW 15 19 1025.6 - 0.0 - - - - - - -
26/09:30am 13.6 SSW 7 11 1025.7 - 0.0 - - - - - - -
26/09:00am 12.6 SSW 4 5 1025.6 - 1.0 - - - - - - -
26/08:30am 11.3 S 4 5 1025.4 - 1.0 - - - - - - -
26/08:00am 10.3 S 4 5 1025.1 - 1.0 - - - - - - -
26/07:30am 8.7 SSE 4 4 1024.6 - 1.0 - - - - - - -
26/07:00am 7.7 S 4 5 1024.2 - 1.0 - - - - - - -
26/06:30am 7.9 S 6 7 1023.8 - 1.0 - - - - - - -
26/06:00am 8.3 S 6 7 1023.4 - 1.0 - - - - - - -
26/05:30am 8.2 SSE 8 8 1023.3 - 1.0 - - - - - - -
26/05:00am 7.5 S 5 6 1023.1 - 1.0 - - - - - - -
26/04:30am 8.5 S 5 6 1023.0 - 1.0 - - - - - - -
26/04:00am 8.1 S 5 6 1022.6 - 1.0 - - - - - - -
26/03:30am 8.3 SSW 5 6 1022.6 - 1.0 - - - - - - -
26/03:00am 9.2 SSW 6 8 1022.5 - 1.0 - - - - - - -
26/02:30am 8.9 S 6 7 1022.4 - 1.0 - - - - - - -
26/02:00am 9.1 S 4 6 1022.5 - 1.0 - - - - - - -

Other Formats:

Comma delimited format used in spreadsheet applications
http://www.bom.gov.au/fwo/IDS60701/IDS60701.95659.axf

JavaScript Object Notation format (JSON) in row-major order
http://www.bom.gov.au/fwo/IDS60701/IDS60701.95659.json